»·PEaware :: N6056Q KMYF-KSBA

N6056Q :: KMYF-KSBA

FLIGHT INFORMATION

Flight Status: Arrived
Operator: Privately registered:
United States
More flights under this callsign
Pilot: Abraham T. (20517)
Aircraft: BEECH AIRCRAFT BONANZA
(BE36)
More flights by this aircraft type
Origin: KMYF Montgomery
United States
Destination: KSBA Santa Barbara Mun
United States
More flights between these airports :: More routes between these airports
Route: +OCN V23 LAX V299 VTU VTU282 KWANG
File this flight plan on PilotEdge
Remarks: please assign holds
Altitude:
(Current/Filed)
6,000ft
Speed:
(Current/Filed)
165kts
Departed: 21-Sep-19 05:15 PM
Arrived: 21-Sep-19 06:33 PM
Distance/Time
Traveled:
166nm/1:17
Distance/Time
To Go:
Arrived

Flight Plot

Page will automatically refresh every two minutes.


Map Options




Map Legend


Flown Route
Filed Route
Departure Airport
Arrival Airport
Navaid (VOR, NDB)
Fix

Horizontal Profiles

Position Reports

Time Latitude Longitude Heading Altitude Ground
Speed
21-Sep-19 16:52 32.812890 -117.140495 202 431ft 0kts
21-Sep-19 16:53 32.812890 -117.140495 202 431ft 0kts
21-Sep-19 16:54 32.812889 -117.140495 202 431ft 0kts
21-Sep-19 16:55 32.812889 -117.140495 202 431ft 0kts
21-Sep-19 16:56 32.812889 -117.140495 202 431ft 0kts
21-Sep-19 16:57 32.812888 -117.140496 202 431ft 0kts
21-Sep-19 16:58 32.812888 -117.140496 202 431ft 0kts
21-Sep-19 16:59 32.812886 -117.140496 202 431ft 0kts
21-Sep-19 17:00 32.812886 -117.140497 202 431ft 0kts
21-Sep-19 17:01 32.812885 -117.140497 202 431ft 0kts
21-Sep-19 17:02 32.812885 -117.140497 202 431ft 0kts
21-Sep-19 17:03 32.812884 -117.140497 202 431ft 0kts
21-Sep-19 17:04 32.812884 -117.140498 202 431ft 0kts
21-Sep-19 17:05 32.813035 -117.140721 19 431ft 0kts
21-Sep-19 17:06 32.812894 -117.140493 202 431ft 0kts
21-Sep-19 17:07 32.813660 -117.140955 41 431ft 14kts
21-Sep-19 17:08 32.812320 -117.135469 112 431ft 20kts
21-Sep-19 17:09 32.812429 -117.132080 29 431ft 0kts
21-Sep-19 17:10 32.812429 -117.132079 29 431ft 0kts
21-Sep-19 17:11 32.812429 -117.132079 29 431ft 0kts
21-Sep-19 17:12 32.812430 -117.132079 29 431ft 0kts
21-Sep-19 17:13 32.812602 -117.131968 22 431ft 7kts
21-Sep-19 17:14 32.819843 -117.152991 278 1225ft 87kts
21-Sep-19 17:15 32.825413 -117.189277 281 2089ft 123kts
21-Sep-19 17:16 32.832465 -117.231274 281 2823ft 134kts
21-Sep-19 17:17 32.839998 -117.276100 281 3474ft 140kts
21-Sep-19 17:18 32.850203 -117.321206 319 4100ft 144kts
21-Sep-19 17:19 32.889343 -117.329252 350 4759ft 145kts
21-Sep-19 17:20 32.928938 -117.338449 348 5385ft 145kts
21-Sep-19 17:21 32.968417 -117.348381 347 6008ft 145kts
21-Sep-19 17:22 33.009328 -117.358767 347 6309ft 160kts
21-Sep-19 17:23 33.056186 -117.370669 347 5991ft 174kts
21-Sep-19 17:24 33.102992 -117.382591 347 5999ft 170kts
21-Sep-19 17:25 33.149106 -117.394351 347 5999ft 169kts
21-Sep-19 17:26 33.195302 -117.406146 347 6000ft 169kts
21-Sep-19 17:27 33.241178 -117.418978 333 5996ft 169kts
21-Sep-19 17:28 33.274327 -117.458620 317 6000ft 169kts
21-Sep-19 17:29 33.308747 -117.497413 316 6000ft 169kts
21-Sep-19 17:30 33.342614 -117.536671 315 6000ft 169kts
21-Sep-19 17:31 33.376368 -117.576030 315 6000ft 169kts
21-Sep-19 17:32 33.410108 -117.615453 315 6000ft 169kts
21-Sep-19 17:33 33.443890 -117.654981 315 6000ft 169kts
21-Sep-19 17:34 33.477653 -117.694533 315 6000ft 169kts
21-Sep-19 17:35 33.511374 -117.734120 315 6000ft 169kts
21-Sep-19 17:36 33.545030 -117.773687 315 6000ft 169kts
21-Sep-19 17:37 33.578717 -117.813295 315 6000ft 169kts
21-Sep-19 17:38 33.609803 -117.855706 303 6000ft 169kts
21-Sep-19 17:39 33.635455 -117.903172 303 6000ft 169kts
21-Sep-19 17:40 33.661818 -117.950114 304 6000ft 169kts
21-Sep-19 17:41 33.688316 -117.996980 304 6000ft 169kts
21-Sep-19 17:42 33.714852 -118.043905 304 6000ft 169kts
21-Sep-19 17:43 33.741376 -118.090858 304 6000ft 169kts
21-Sep-19 17:44 33.767824 -118.137732 304 6000ft 169kts
21-Sep-19 17:45 33.794327 -118.184767 304 6000ft 169kts
21-Sep-19 17:46 33.820758 -118.231733 304 6000ft 169kts
21-Sep-19 17:47 33.847200 -118.278781 304 6000ft 169kts
21-Sep-19 17:48 33.873613 -118.325836 304 6000ft 169kts
21-Sep-19 17:49 33.900097 -118.373080 303 6000ft 169kts
21-Sep-19 17:50 33.926470 -118.420186 303 6000ft 169kts
21-Sep-19 17:51 33.945256 -118.471997 292 6000ft 169kts
21-Sep-19 17:52 33.962682 -118.524938 291 6000ft 169kts
21-Sep-19 17:53 33.979652 -118.577881 291 6000ft 169kts
21-Sep-19 17:54 33.996594 -118.631074 290 6000ft 169kts
21-Sep-19 17:55 34.013458 -118.684160 290 6000ft 169kts
21-Sep-19 17:56 34.030352 -118.737444 290 6000ft 169kts
21-Sep-19 17:57 34.046407 -118.790864 287 6000ft 169kts
21-Sep-19 17:58 34.060657 -118.845298 287 6000ft 169kts
21-Sep-19 17:59 34.075078 -118.899460 287 6000ft 169kts
21-Sep-19 18:00 34.089545 -118.953724 287 6000ft 169kts
21-Sep-19 18:01 34.103845 -119.007435 287 6000ft 169kts
21-Sep-19 18:02 34.119886 -119.061519 296 6001ft 169kts
21-Sep-19 18:03 34.140277 -119.113011 295 6000ft 169kts
21-Sep-19 18:04 34.160610 -119.164368 295 6000ft 169kts
21-Sep-19 18:05 34.180979 -119.215838 295 6000ft 169kts
21-Sep-19 18:06 34.201358 -119.267397 295 6000ft 169kts
21-Sep-19 18:07 34.221701 -119.318929 295 6000ft 169kts
21-Sep-19 18:08 34.241979 -119.370386 295 6000ft 169kts
21-Sep-19 18:09 34.262294 -119.422026 295 6000ft 169kts
21-Sep-19 18:10 34.272551 -119.476554 268 6001ft 169kts
21-Sep-19 18:11 34.272979 -119.533608 271 5999ft 170kts
21-Sep-19 18:12 34.274384 -119.590793 272 5986ft 170kts
21-Sep-19 18:13 34.275876 -119.647917 272 5984ft 169kts
21-Sep-19 18:14 34.277353 -119.704973 272 5981ft 169kts
21-Sep-19 18:15 34.278805 -119.762033 272 5964ft 170kts
21-Sep-19 18:16 34.280230 -119.819206 273 5905ft 168kts
21-Sep-19 18:17 34.279958 -119.880303 265 4932ft 177kts
21-Sep-19 18:18 34.275545 -119.933373 264 5090ft 165kts
21-Sep-19 18:20 34.269314 -119.991028 262 4410ft 177kts
21-Sep-19 18:21 34.262226 -120.048778 261 4074ft 165kts
21-Sep-19 18:22 34.254975 -120.104736 261 3620ft 175kts
21-Sep-19 18:23 34.265578 -120.154667 351 2954ft 173kts
21-Sep-19 18:24 34.302257 -120.123625 43 2881ft 161kts
21-Sep-19 18:25 34.337421 -120.091871 15 2887ft 158kts
21-Sep-19 18:26 34.381387 -120.088149 359 2886ft 159kts
21-Sep-19 18:27 34.421090 -120.073124 64 2630ft 165kts
21-Sep-19 18:28 34.424040 -120.017798 83 1960ft 166kts
21-Sep-19 18:29 34.425327 -119.963745 86 1720ft 152kts
21-Sep-19 18:30 34.426283 -119.913294 85 1556ft 153kts
21-Sep-19 18:31 34.427094 -119.874820 84 900ft 109kts
21-Sep-19 18:32 34.427653 -119.842321 79 14ft 58kts
21-Sep-19 18:33 34.428554 -119.832109 359 14ft 0kts
21-Sep-19 18:34 34.428555 -119.832109 359 14ft 0kts
21-Sep-19 18:35 34.429578 -119.832049 11 14ft 10kts

Navigation Log

Ident Type
Flight plan parsing failed, navigation log unavailable